Time;durP1;ratioP1;P1;durP2;ratioP2;P2;SDS_P1;SDS_P2;PMS_P1;PMS_P2;Temp;Humidity;BMP_temperature;BMP_pressure;BME280_temperature;BME280_humidity;BME280_pressure;Samples;Min_cycle;Max_cycle;Signal;HPM_P1;HPM_P2
2023/08/16 00:01:34;;;;;;;0.10;0.10;;;;;;;;;;10323200;28;20018;-68
2023/08/16 00:06:34;;;;;;;0.10;0.10;;;;;;;;;;10322613;28;20026;-68
2023/08/16 00:11:34;;;;;;;0.10;0.10;;;;;;;;;;10322775;28;20608;-68
2023/08/16 00:16:34;;;;;;;0.10;0.10;;;;;;;;;;10322852;28;20382;-68
2023/08/16 00:21:34;;;;;;;0.10;0.10;;;;;;;;;;10321930;28;20023;-68
2023/08/16 00:26:35;;;;;;;0.10;0.10;;;;;;;;;;10319172;28;20038;-68
2023/08/16 00:31:35;;;;;;;0.10;0.10;;;;;;;;;;10321245;28;20018;-68
2023/08/16 00:36:35;;;;;;;0.00;0.00;;;;;;;;;;10322919;28;20080;-68
2023/08/16 00:41:35;;;;;;;0.10;0.10;;;;;;;;;;10329861;28;20014;-68
2023/08/16 00:46:35;;;;;;;0.10;0.10;;;;;;;;;;10330695;28;20046;-68
2023/08/16 00:51:36;;;;;;;0.10;0.10;;;;;;;;;;10329875;28;20018;-68
2023/08/16 00:56:37;;;;;;;0.00;0.00;;;;;;;;;;10324521;28;20371;-68
2023/08/16 01:01:38;;;;;;;0.10;0.10;;;;;;;;;;10329286;28;20010;-68
2023/08/16 01:06:38;;;;;;;0.10;0.10;;;;;;;;;;10329402;28;20149;-68
2023/08/16 01:11:40;;;;;;;0.10;0.10;;;;;;;;;;10328752;28;20117;-68
2023/08/16 01:16:42;;;;;;;0.10;0.10;;;;;;;;;;10329793;28;20023;-68
2023/08/16 01:21:53;;;;;;;0.00;0.00;;;;;;;;;;10327741;28;20030;-68
2023/08/16 01:26:54;;;;;;;0.10;0.10;;;;;;;;;;10327707;28;20077;-68
2023/08/16 01:31:55;;;;;;;0.00;0.00;;;;;;;;;;10328870;28;20077;-68
2023/08/16 01:36:55;;;;;;;0.10;0.10;;;;;;;;;;10328182;28;20173;-68
2023/08/16 01:41:56;;;;;;;0.10;0.10;;;;;;;;;;10328185;28;20030;-68
2023/08/16 01:46:57;;;;;;;0.10;0.10;;;;;;;;;;10328057;28;20014;-68
2023/08/16 01:51:57;;;;;;;0.00;0.00;;;;;;;;;;10326820;28;20307;-67
2023/08/16 01:56:57;;;;;;;0.08;0.08;;;;;;;;;;10326863;28;20084;-68
2023/08/16 02:01:59;;;;;;;0.10;0.10;;;;;;;;;;10327833;28;20096;-68
2023/08/16 02:06:59;;;;;;;0.10;0.10;;;;;;;;;;10327395;28;20102;-68
2023/08/16 02:11:59;;;;;;;0.10;0.10;;;;;;;;;;10327565;28;20541;-68
2023/08/16 02:16:59;;;;;;;0.00;0.00;;;;;;;;;;10327059;28;20422;-68
2023/08/16 02:22:00;;;;;;;0.10;0.10;;;;;;;;;;10326086;28;20432;-68
2023/08/16 02:27:00;;;;;;;0.10;0.10;;;;;;;;;;10325814;28;20042;-68
2023/08/16 02:32:00;;;;;;;0.00;0.00;;;;;;;;;;10326169;28;20041;-68
2023/08/16 02:37:00;;;;;;;0.10;0.10;;;;;;;;;;10326169;28;20559;-68
2023/08/16 02:42:01;;;;;;;0.10;0.10;;;;;;;;;;10326201;28;20365;-68
2023/08/16 02:47:01;;;;;;;0.00;0.00;;;;;;;;;;10325208;28;20493;-68
2023/08/16 02:52:01;;;;;;;0.10;0.10;;;;;;;;;;10324682;28;20958;-68
2023/08/16 02:57:01;;;;;;;0.10;0.10;;;;;;;;;;10324914;28;20436;-68
2023/08/16 03:02:01;;;;;;;0.10;0.10;;;;;;;;;;10323910;28;20026;-68
2023/08/16 03:07:02;;;;;;;0.10;0.10;;;;;;;;;;10324601;28;20036;-68
2023/08/16 03:12:02;;;;;;;0.10;0.10;;;;;;;;;;10323883;28;20026;-68
2023/08/16 03:17:03;;;;;;;0.10;0.10;;;;;;;;;;10325354;28;20496;-68
2023/08/16 03:22:03;;;;;;;0.10;0.10;;;;;;;;;;10321085;28;20018;-68
2023/08/16 03:27:03;;;;;;;0.10;0.10;;;;;;;;;;10323670;28;20485;-68
2023/08/16 03:32:04;;;;;;;0.10;0.10;;;;;;;;;;10324006;28;20015;-67
2023/08/16 03:37:04;;;;;;;0.10;0.10;;;;;;;;;;10321906;28;20023;-68
2023/08/16 03:42:04;;;;;;;0.00;0.00;;;;;;;;;;10338239;28;20504;-68
2023/08/16 03:47:05;;;;;;;0.10;0.10;;;;;;;;;;10321315;28;20117;-68
2023/08/16 03:52:06;;;;;;;0.10;0.10;;;;;;;;;;10322420;28;20370;-68
2023/08/16 03:57:06;;;;;;;0.10;0.10;;;;;;;;;;10320449;28;20123;-68
2023/08/16 04:02:06;;;;;;;0.10;0.10;;;;;;;;;;10284754;28;20105;-68
2023/08/16 04:07:06;;;;;;;0.10;0.10;;;;;;;;;;10310976;28;20022;-68
2023/08/16 04:12:07;;;;;;;0.10;0.10;;;;;;;;;;10323770;28;20371;-68
2023/08/16 04:17:07;;;;;;;0.10;0.10;;;;;;;;;;10331481;28;20266;-68
2023/08/16 04:22:07;;;;;;;0.10;0.10;;;;;;;;;;10328893;28;20018;-68
2023/08/16 04:27:07;;;;;;;0.10;0.10;;;;;;;;;;10329480;28;20642;-68
2023/08/16 04:32:07;;;;;;;0.10;0.10;;;;;;;;;;10328152;28;20238;-68
2023/08/16 04:37:08;;;;;;;0.10;0.10;;;;;;;;;;10323387;28;20022;-68
2023/08/16 04:42:08;;;;;;;0.10;0.10;;;;;;;;;;10328408;28;20101;-68
2023/08/16 04:47:08;;;;;;;0.10;0.10;;;;;;;;;;10330094;28;20025;-68
2023/08/16 04:52:08;;;;;;;0.00;0.00;;;;;;;;;;10327853;28;20069;-68
2023/08/16 04:57:08;;;;;;;0.10;0.10;;;;;;;;;;10327983;28;20018;-68
2023/08/16 05:02:09;;;;;;;0.00;0.00;;;;;;;;;;10326879;28;20513;-68
2023/08/16 05:07:09;;;;;;;0.10;0.10;;;;;;;;;;10327607;28;20018;-68
2023/08/16 05:12:09;;;;;;;0.00;0.00;;;;;;;;;;10323459;28;20406;-68
2023/08/16 05:17:09;;;;;;;0.00;0.00;;;;;;;;;;10324051;28;20041;-69
2023/08/16 05:22:09;;;;;;;0.00;0.00;;;;;;;;;;10323913;28;20041;-69
2023/08/16 05:27:12;;;;;;;0.00;0.00;;;;;;;;;;10303678;28;20094;-69
2023/08/16 05:32:12;;;;;;;;;;;;;;;;;;10297385;28;20019;-69
2023/08/16 05:37:12;;;;;;;0.10;0.10;;;;;;;;;;10315561;28;19972;-69
2023/08/16 05:42:12;;;;;;;0.00;0.00;;;;;;;;;;10326380;28;20019;-69
2023/08/16 05:47:13;;;;;;;0.00;0.00;;;;;;;;;;10323485;28;20027;-69
2023/08/16 05:52:13;;;;;;;0.10;0.10;;;;;;;;;;10324651;28;20022;-69
2023/08/16 05:57:13;;;;;;;0.00;0.00;;;;;;;;;;10325456;28;20058;-69
2023/08/16 06:02:13;;;;;;;0.10;0.10;;;;;;;;;;10321010;28;20026;-69
2023/08/16 06:07:14;;;;;;;0.10;0.10;;;;;;;;;;10325315;28;20021;-69
2023/08/16 06:12:14;;;;;;;0.10;0.10;;;;;;;;;;10326442;28;20434;-69
2023/08/16 06:17:14;;;;;;;0.10;0.10;;;;;;;;;;10326163;28;20113;-69
2023/08/16 06:22:14;;;;;;;0.08;0.08;;;;;;;;;;10325530;28;20026;-68
2023/08/16 06:27:14;;;;;;;0.10;0.10;;;;;;;;;;10324153;28;20065;-68
2023/08/16 06:32:14;;;;;;;0.10;0.10;;;;;;;;;;10320464;28;20021;-68
2023/08/16 06:37:15;;;;;;;0.10;0.10;;;;;;;;;;10322551;28;20350;-68
2023/08/16 06:42:15;;;;;;;0.10;0.10;;;;;;;;;;10324661;28;20027;-68
2023/08/16 06:47:16;;;;;;;0.10;0.10;;;;;;;;;;10325699;28;20029;-68
2023/08/16 06:52:16;;;;;;;0.10;0.10;;;;;;;;;;10324959;28;20020;-68
2023/08/16 06:57:16;;;;;;;0.10;0.10;;;;;;;;;;10325738;28;20476;-69
2023/08/16 07:02:17;;;;;;;0.10;0.10;;;;;;;;;;10303076;28;20358;-69
2023/08/16 07:07:18;;;;;;;0.10;0.10;;;;;;;;;;10322058;28;20017;-69
2023/08/16 07:12:18;;;;;;;0.10;0.10;;;;;;;;;;10324149;28;20492;-69
2023/08/16 07:17:18;;;;;;;0.07;0.07;;;;;;;;;;10322951;28;20282;-68
2023/08/16 07:22:20;;;;;;;0.10;0.10;;;;;;;;;;10321444;28;20018;-73
2023/08/16 07:27:20;;;;;;;0.10;0.10;;;;;;;;;;10316882;28;20018;-72
2023/08/16 07:32:20;;;;;;;0.10;0.10;;;;;;;;;;10319866;28;20025;-72
2023/08/16 07:37:21;;;;;;;0.10;0.10;;;;;;;;;;10320041;28;20445;-73
2023/08/16 07:42:22;;;;;;;0.10;0.10;;;;;;;;;;10323033;28;20014;-73
2023/08/16 07:47:22;;;;;;;0.10;0.10;;;;;;;;;;10322056;28;20029;-72
2023/08/16 07:52:23;;;;;;;0.10;0.10;;;;;;;;;;10321338;28;20026;-72
2023/08/16 07:57:23;;;;;;;0.10;0.10;;;;;;;;;;10319692;28;20591;-73
2023/08/16 08:02:23;;;;;;;0.10;0.10;;;;;;;;;;10319254;28;20034;-71
2023/08/16 08:07:23;;;;;;;0.10;0.10;;;;;;;;;;10320422;28;20022;-72
2023/08/16 08:12:23;;;;;;;0.10;0.10;;;;;;;;;;10322920;28;20406;-72
2023/08/16 08:17:24;;;;;;;0.00;0.00;;;;;;;;;;10322181;28;20093;-72
2023/08/16 08:22:24;;;;;;;0.10;0.10;;;;;;;;;;10321163;28;20019;-72
2023/08/16 08:27:24;;;;;;;0.10;0.10;;;;;;;;;;10311740;28;20041;-72
2023/08/16 08:32:24;;;;;;;0.00;0.00;;;;;;;;;;10318804;28;20524;-72
2023/08/16 08:37:25;;;;;;;0.10;0.10;;;;;;;;;;10316960;28;20057;-72
2023/08/16 08:42:26;;;;;;;0.10;0.10;;;;;;;;;;10322504;28;20046;-72
2023/08/16 08:47:28;;;;;;;0.10;0.10;;;;;;;;;;10319497;28;20417;-72
2023/08/16 08:52:29;;;;;;;0.10;0.10;;;;;;;;;;10320728;28;20014;-73
2023/08/16 08:57:30;;;;;;;0.10;0.10;;;;;;;;;;10320924;28;20026;-74
2023/08/16 09:02:30;;;;;;;0.03;0.03;;;;;;;;;;10329177;28;20015;-72
2023/08/16 09:07:31;;;;;;;0.10;0.10;;;;;;;;;;10320200;28;20061;-72
2023/08/16 09:12:31;;;;;;;0.10;0.10;;;;;;;;;;10329213;28;20030;-72
2023/08/16 09:17:31;;;;;;;0.10;0.10;;;;;;;;;;10327192;28;20025;-72
2023/08/16 09:22:31;;;;;;;0.00;0.00;;;;;;;;;;10328254;28;20466;-72
2023/08/16 09:27:32;;;;;;;0.10;0.10;;;;;;;;;;10324606;28;20018;-72
2023/08/16 09:32:32;;;;;;;0.10;0.10;;;;;;;;;;10324006;28;20097;-72
2023/08/16 09:37:33;;;;;;;0.00;0.00;;;;;;;;;;10328694;28;20093;-72
2023/08/16 09:42:33;;;;;;;0.00;0.00;;;;;;;;;;10326789;28;20023;-72
2023/08/16 09:47:41;;;;;;;0.10;0.10;;;;;;;;;;10327138;28;20024;-72
2023/08/16 09:52:42;;;;;;;0.00;0.00;;;;;;;;;;10326922;28;20254;-72
2023/08/16 09:57:43;;;;;;;0.00;0.00;;;;;;;;;;10326941;28;20096;-71
2023/08/16 10:02:46;;;;;;;0.00;0.00;;;;;;;;;;10326804;28;20488;-72
2023/08/16 10:07:48;;;;;;;0.00;0.00;;;;;;;;;;10327157;28;20080;-72
2023/08/16 10:12:48;;;;;;;0.00;0.00;;;;;;;;;;10328508;28;20116;-71
2023/08/16 10:17:50;;;;;;;0.00;0.00;;;;;;;;;;10323503;28;20026;-71
2023/08/16 10:22:55;;;;;;;0.10;0.10;;;;;;;;;;10326131;28;20028;-71
2023/08/16 10:27:57;;;;;;;0.10;0.10;;;;;;;;;;10325468;28;20072;-71
2023/08/16 10:32:58;;;;;;;;;;;;;;;;;;10322228;28;20025;-71
2023/08/16 10:37:58;;;;;;;0.00;0.00;;;;;;;;;;10326054;28;19906;-71
2023/08/16 10:42:59;;;;;;;0.10;0.10;;;;;;;;;;10324513;28;20023;-72
2023/08/16 10:48:10;;;;;;;0.00;0.00;;;;;;;;;;10325899;28;20046;-71
2023/08/16 10:53:12;;;;;;;0.10;0.10;;;;;;;;;;10318275;28;20018;-72
2023/08/16 10:58:20;;;;;;;0.00;0.00;;;;;;;;;;10313845;28;20024;-72
2023/08/16 11:03:20;;;;;;;0.03;0.03;;;;;;;;;;10316693;28;20018;-72
2023/08/16 11:08:20;;;;;;;0.10;0.10;;;;;;;;;;10324277;28;20552;-72
2023/08/16 11:13:20;;;;;;;0.00;0.00;;;;;;;;;;10321964;28;20026;-72
2023/08/16 11:18:30;;;;;;;0.05;0.05;;;;;;;;;;10324607;28;20014;-72
2023/08/16 11:23:35;;;;;;;0.00;0.00;;;;;;;;;;10322173;28;20046;-72
2023/08/16 11:28:37;;;;;;;0.00;0.00;;;;;;;;;;10334763;28;20101;-71
2023/08/16 11:33:41;;;;;;;0.10;0.10;;;;;;;;;;10319713;28;20014;-72
2023/08/16 11:38:41;;;;;;;0.00;0.00;;;;;;;;;;10321993;28;20026;-72
2023/08/16 11:43:41;;;;;;;0.00;0.00;;;;;;;;;;10323171;28;20102;-72
2023/08/16 11:48:41;;;;;;;0.00;0.00;;;;;;;;;;10316534;28;20552;-71
2023/08/16 11:53:41;;;;;;;0.00;0.00;;;;;;;;;;10320716;28;20037;-71
2023/08/16 11:58:46;;;;;;;0.00;0.00;;;;;;;;;;10322856;28;20038;-72
2023/08/16 12:03:46;;;;;;;0.00;0.00;;;;;;;;;;10311766;28;20458;-72
2023/08/16 12:08:48;;;;;;;0.10;0.10;;;;;;;;;;10322974;28;20046;-72
2023/08/16 12:13:48;;;;;;;0.00;0.00;;;;;;;;;;10320465;28;20054;-68
2023/08/16 12:18:49;;;;;;;0.00;0.00;;;;;;;;;;10323428;28;20069;-68
2023/08/16 12:23:49;;;;;;;0.00;0.00;;;;;;;;;;10322157;28;20304;-68
2023/08/16 12:28:49;;;;;;;0.00;0.00;;;;;;;;;;10323111;28;20014;-68
2023/08/16 12:33:50;;;;;;;0.00;0.00;;;;;;;;;;10321873;28;20029;-68
2023/08/16 12:38:50;;;;;;;0.00;0.00;;;;;;;;;;10330236;28;20022;-68
2023/08/16 12:43:53;;;;;;;0.00;0.00;;;;;;;;;;10328914;28;20026;-69
2023/08/16 12:48:53;;;;;;;0.00;0.00;;;;;;;;;;10330143;28;20350;-68
2023/08/16 12:53:54;;;;;;;0.03;0.03;;;;;;;;;;10328590;28;20045;-68
2023/08/16 12:58:54;;;;;;;0.00;0.00;;;;;;;;;;10329555;28;20469;-67
2023/08/16 13:03:54;;;;;;;0.00;0.00;;;;;;;;;;10325711;28;20025;-67
2023/08/16 13:08:54;;;;;;;0.00;0.00;;;;;;;;;;10329427;28;20041;-68
2023/08/16 13:13:54;;;;;;;0.00;0.00;;;;;;;;;;10323334;28;20029;-68
2023/08/16 13:18:54;;;;;;;0.00;0.00;;;;;;;;;;10326153;28;20316;-68
2023/08/16 13:23:55;;;;;;;0.00;0.00;;;;;;;;;;10325625;28;20080;-68
2023/08/16 13:28:55;;;;;;;0.10;0.10;;;;;;;;;;10344000;28;20370;-68
2023/08/16 13:33:55;;;;;;;0.00;0.00;;;;;;;;;;10322032;28;20038;-67
2023/08/16 13:38:55;;;;;;;0.00;0.00;;;;;;;;;;10327308;28;20371;-68
2023/08/16 13:43:57;;;;;;;0.00;0.00;;;;;;;;;;10327583;28;20022;-67
2023/08/16 13:48:58;;;;;;;0.00;0.00;;;;;;;;;;10327740;28;20381;-67
2023/08/16 13:53:58;;;;;;;0.00;0.00;;;;;;;;;;10327448;28;20069;-68
2023/08/16 13:58:58;;;;;;;0.00;0.00;;;;;;;;;;10327296;28;20381;-68
2023/08/16 14:03:59;;;;;;;0.00;0.00;;;;;;;;;;10324135;28;20049;-68
2023/08/16 14:08:59;;;;;;;0.00;0.00;;;;;;;;;;10323999;28;20022;-67
2023/08/16 14:13:59;;;;;;;0.00;0.00;;;;;;;;;;10326468;28;20473;-67
2023/08/16 14:19:00;;;;;;;0.00;0.00;;;;;;;;;;10326823;28;20022;-67
2023/08/16 14:24:00;;;;;;;0.00;0.00;;;;;;;;;;10318859;28;20030;-67
2023/08/16 14:29:03;;;;;;;0.10;0.10;;;;;;;;;;10318180;28;20015;-67
2023/08/16 14:34:03;;;;;;;0.00;0.00;;;;;;;;;;10319370;28;20097;-67
2023/08/16 14:39:03;;;;;;;0.00;0.00;;;;;;;;;;10324952;28;20496;-68
2023/08/16 14:44:04;;;;;;;0.00;0.00;;;;;;;;;;10321562;28;20018;-68
2023/08/16 14:49:04;;;;;;;0.10;0.10;;;;;;;;;;10317346;28;20018;-68
2023/08/16 14:54:05;;;;;;;0.00;0.00;;;;;;;;;;10317057;28;20101;-68
2023/08/16 14:59:06;;;;;;;0.10;0.10;;;;;;;;;;10323295;28;20473;-68
2023/08/16 15:04:06;;;;;;;0.00;0.00;;;;;;;;;;10324826;28;20018;-68
2023/08/16 15:09:06;;;;;;;0.10;0.10;;;;;;;;;;10324321;28;20097;-68
2023/08/16 15:14:09;;;;;;;0.00;0.00;;;;;;;;;;10324075;28;20041;-66
2023/08/16 15:19:09;;;;;;;0.00;0.00;;;;;;;;;;10321908;28;20064;-67
2023/08/16 15:24:09;;;;;;;0.00;0.00;;;;;;;;;;10320622;28;20061;-67
2023/08/16 15:29:10;;;;;;;0.00;0.00;;;;;;;;;;10323242;28;20121;-66
2023/08/16 15:34:10;;;;;;;0.00;0.00;;;;;;;;;;10324178;28;20015;-66
2023/08/16 15:39:11;;;;;;;0.00;0.00;;;;;;;;;;10323619;28;20113;-66
2023/08/16 15:44:11;;;;;;;0.00;0.00;;;;;;;;;;10324037;28;20017;-66
2023/08/16 15:49:11;;;;;;;0.00;0.00;;;;;;;;;;10322112;28;20097;-66
2023/08/16 15:54:11;;;;;;;0.00;0.00;;;;;;;;;;10321962;28;20033;-66
2023/08/16 15:59:12;;;;;;;0.10;0.10;;;;;;;;;;10323795;28;20032;-66
2023/08/16 16:04:12;;;;;;;0.10;0.10;;;;;;;;;;10323436;28;20114;-66
2023/08/16 16:09:12;;;;;;;0.00;0.00;;;;;;;;;;10331349;28;20254;-66
2023/08/16 16:14:12;;;;;;;0.00;0.00;;;;;;;;;;10336237;28;20078;-66
2023/08/16 16:19:13;;;;;;;0.00;0.00;;;;;;;;;;10336299;28;20458;-66
2023/08/16 16:24:13;;;;;;;0.10;0.10;;;;;;;;;;10334338;28;20018;-66
2023/08/16 16:29:13;;;;;;;0.10;0.10;;;;;;;;;;10334681;28;20440;-67
2023/08/16 16:34:13;;;;;;;0.10;0.10;;;;;;;;;;10333824;28;20026;-67
2023/08/16 16:39:15;;;;;;;0.00;0.00;;;;;;;;;;10335570;28;20172;-67
2023/08/16 16:44:15;;;;;;;0.00;0.00;;;;;;;;;;10335051;28;20065;-67
2023/08/16 16:49:16;;;;;;;0.00;0.00;;;;;;;;;;10337130;28;20057;-67
2023/08/16 16:54:17;;;;;;;0.10;0.10;;;;;;;;;;10332598;28;20060;-67
2023/08/16 16:59:17;;;;;;;0.00;0.00;;;;;;;;;;10337306;28;20057;-67
2023/08/16 17:04:17;;;;;;;0.00;0.00;;;;;;;;;;10335735;28;20077;-67
2023/08/16 17:09:17;;;;;;;0.00;0.00;;;;;;;;;;10336508;28;20272;-67
2023/08/16 17:14:18;;;;;;;0.00;0.00;;;;;;;;;;10335669;28;20072;-67
2023/08/16 17:19:18;;;;;;;0.00;0.00;;;;;;;;;;10332987;28;20457;-67
2023/08/16 17:24:18;;;;;;;0.00;0.00;;;;;;;;;;10328262;28;20010;-67
2023/08/16 17:29:18;;;;;;;0.00;0.00;;;;;;;;;;10328644;28;20029;-67
2023/08/16 17:34:19;;;;;;;0.10;0.10;;;;;;;;;;10327986;28;20014;-66
2023/08/16 17:39:19;;;;;;;0.00;0.00;;;;;;;;;;10328787;28;20014;-67
2023/08/16 17:44:19;;;;;;;0.00;0.00;;;;;;;;;;10326892;28;20050;-67
2023/08/16 17:49:20;;;;;;;0.00;0.00;;;;;;;;;;10330295;28;20033;-67
2023/08/16 17:54:20;;;;;;;0.00;0.00;;;;;;;;;;10328229;28;20017;-67
2023/08/16 17:59:22;;;;;;;0.10;0.10;;;;;;;;;;10327147;28;20399;-66
2023/08/16 18:04:22;;;;;;;0.00;0.00;;;;;;;;;;10341568;28;20019;-68
2023/08/16 18:09:22;;;;;;;0.00;0.00;;;;;;;;;;10327191;28;20010;-68
2023/08/16 18:14:23;;;;;;;0.10;0.10;;;;;;;;;;10326169;28;20022;-67
2023/08/16 18:19:23;;;;;;;0.00;0.00;;;;;;;;;;10326675;28;20109;-67
2023/08/16 18:24:23;;;;;;;0.00;0.00;;;;;;;;;;10326593;28;20022;-67
2023/08/16 18:29:23;;;;;;;0.10;0.10;;;;;;;;;;10325929;28;20067;-67
2023/08/16 18:34:25;;;;;;;0.00;0.00;;;;;;;;;;10325022;28;20057;-68
2023/08/16 18:39:25;;;;;;;0.10;0.10;;;;;;;;;;10324428;28;20057;-68
2023/08/16 18:44:25;;;;;;;0.00;0.00;;;;;;;;;;10323370;28;20049;-68
2023/08/16 18:49:27;;;;;;;0.00;0.00;;;;;;;;;;10326315;28;20019;-68
2023/08/16 18:54:27;;;;;;;0.00;0.00;;;;;;;;;;10323732;28;20363;-68
2023/08/16 18:59:28;;;;;;;0.10;0.10;;;;;;;;;;10323823;28;20018;-69
2023/08/16 19:04:29;;;;;;;0.00;0.00;;;;;;;;;;10325273;28;20406;-69
2023/08/16 19:09:29;;;;;;;0.00;0.00;;;;;;;;;;10324692;28;20050;-69
2023/08/16 19:14:29;;;;;;;0.00;0.00;;;;;;;;;;10320862;28;20538;-69
2023/08/16 19:19:29;;;;;;;0.00;0.00;;;;;;;;;;10323634;28;20018;-68
2023/08/16 19:24:29;;;;;;;0.10;0.10;;;;;;;;;;10321013;28;20137;-68
2023/08/16 19:29:29;;;;;;;0.00;0.00;;;;;;;;;;10322416;28;20030;-68
2023/08/16 19:34:30;;;;;;;0.10;0.10;;;;;;;;;;10326777;28;20157;-68
2023/08/16 19:39:30;;;;;;;0.00;0.00;;;;;;;;;;10327229;28;20026;-69
2023/08/16 19:44:30;;;;;;;0.08;0.08;;;;;;;;;;10322416;28;20027;-68
2023/08/16 19:49:30;;;;;;;0.10;0.10;;;;;;;;;;10323292;28;20033;-68
2023/08/16 19:54:30;;;;;;;0.10;0.10;;;;;;;;;;10322602;28;20041;-69
2023/08/16 19:59:31;;;;;;;0.00;0.00;;;;;;;;;;10321666;28;20069;-69
2023/08/16 20:04:31;;;;;;;0.10;0.10;;;;;;;;;;10320908;28;20173;-68
2023/08/16 20:09:31;;;;;;;0.10;0.10;;;;;;;;;;10322926;28;20543;-68
2023/08/16 20:14:31;;;;;;;0.10;0.10;;;;;;;;;;10322657;28;20019;-67
2023/08/16 20:19:31;;;;;;;0.10;0.10;;;;;;;;;;10322635;28;20019;-68
2023/08/16 20:24:32;;;;;;;0.10;0.10;;;;;;;;;;10322996;28;20086;-68
2023/08/16 20:29:32;;;;;;;0.00;0.00;;;;;;;;;;10319228;28;20038;-67
2023/08/16 20:34:32;;;;;;;0.10;0.10;;;;;;;;;;10322248;28;20102;-67
2023/08/16 20:39:32;;;;;;;0.10;0.10;;;;;;;;;;10322906;28;20014;-67
2023/08/16 20:44:33;;;;;;;0.10;0.10;;;;;;;;;;10321842;28;20057;-68
2023/08/16 20:49:33;;;;;;;0.10;0.10;;;;;;;;;;10314165;28;20011;-67
2023/08/16 20:54:33;;;;;;;0.03;0.03;;;;;;;;;;10322274;28;20022;-67
2023/08/16 20:59:33;;;;;;;0.00;0.00;;;;;;;;;;10327184;28;20437;-67
2023/08/16 21:04:33;;;;;;;0.10;0.10;;;;;;;;;;10329180;28;20006;-67
2023/08/16 21:09:34;;;;;;;0.10;0.10;;;;;;;;;;10329111;28;20026;-67
2023/08/16 21:14:34;;;;;;;0.10;0.10;;;;;;;;;;10329057;28;20118;-67
2023/08/16 21:19:34;;;;;;;0.10;0.10;;;;;;;;;;10329416;28;20022;-67
2023/08/16 21:24:34;;;;;;;0.10;0.10;;;;;;;;;;10327804;28;20122;-67
2023/08/16 21:29:34;;;;;;;0.10;0.10;;;;;;;;;;10320181;28;20082;-67
2023/08/16 21:34:35;;;;;;;0.00;0.00;;;;;;;;;;10329217;28;20018;-67
2023/08/16 21:39:35;;;;;;;0.10;0.10;;;;;;;;;;10329938;28;20446;-68
2023/08/16 21:44:35;;;;;;;0.10;0.10;;;;;;;;;;10328944;28;20065;-67
2023/08/16 21:49:35;;;;;;;0.10;0.10;;;;;;;;;;10324024;28;20018;-68
2023/08/16 21:54:35;;;;;;;0.10;0.10;;;;;;;;;;10328836;28;20018;-67
2023/08/16 21:59:35;;;;;;;0.10;0.10;;;;;;;;;;10327640;28;20017;-67
2023/08/16 22:04:36;;;;;;;0.10;0.10;;;;;;;;;;10327080;28;20089;-68
2023/08/16 22:09:36;;;;;;;0.00;0.00;;;;;;;;;;10327297;28;20091;-67
2023/08/16 22:14:36;;;;;;;0.00;0.00;;;;;;;;;;10326589;28;20037;-67
2023/08/16 22:19:36;;;;;;;0.10;0.10;;;;;;;;;;10327268;28;20411;-67
2023/08/16 22:24:37;;;;;;;0.10;0.10;;;;;;;;;;10326418;28;20014;-67
2023/08/16 22:29:37;;;;;;;0.10;0.10;;;;;;;;;;10320803;28;20033;-67
2023/08/16 22:34:37;;;;;;;0.00;0.00;;;;;;;;;;10326634;28;20092;-68
2023/08/16 22:39:37;;;;;;;0.10;0.10;;;;;;;;;;10325930;28;20466;-68
2023/08/16 22:44:38;;;;;;;0.10;0.10;;;;;;;;;;10325563;28;20014;-67
2023/08/16 22:49:38;;;;;;;0.10;0.10;;;;;;;;;;10324095;28;20176;-66
2023/08/16 22:54:39;;;;;;;0.10;0.10;;;;;;;;;;10324375;28;20011;-67
2023/08/16 22:59:39;;;;;;;0.10;0.10;;;;;;;;;;10321708;28;20026;-68
2023/08/16 23:04:39;;;;;;;0.10;0.10;;;;;;;;;;10323462;28;20033;-67
2023/08/16 23:09:39;;;;;;;0.10;0.10;;;;;;;;;;10325751;28;20096;-67
2023/08/16 23:14:39;;;;;;;0.10;0.10;;;;;;;;;;10324679;28;20098;-66
2023/08/16 23:19:40;;;;;;;0.10;0.10;;;;;;;;;;10324414;28;20022;-66
2023/08/16 23:24:40;;;;;;;0.10;0.10;;;;;;;;;;10323997;28;20050;-67
2023/08/16 23:29:40;;;;;;;0.10;0.10;;;;;;;;;;10318371;28;20061;-67
2023/08/16 23:34:40;;;;;;;0.10;0.10;;;;;;;;;;10323661;28;20030;-67
2023/08/16 23:39:41;;;;;;;0.10;0.10;;;;;;;;;;10323761;28;20042;-67
2023/08/16 23:44:41;;;;;;;0.10;0.10;;;;;;;;;;10323677;28;20125;-66
2023/08/16 23:49:41;;;;;;;0.10;0.10;;;;;;;;;;10323749;28;20485;-68
2023/08/16 23:54:41;;;;;;;0.10;0.10;;;;;;;;;;10322956;28;20114;-67
2023/08/16 23:59:45;;;;;;;0.03;0.03;;;;;;;;;;10315824;28;20105;-67
